Terminal Aerodrome Forecast
Issued by NWS

Home | Current Version | Previous Version | Text Only | Print | Product List | Glossary On
Versions: 1 2 3 4 5 6 7 8 9 10 11 12 13
000
FTUS45 KABQ 271120
TAFGUP
TAF
KGUP 271120Z 2712/2812 VRB04KT P6SM SCT060
     FM271500 23012G20KT P6SM FEW060
     FM272000 27015G25KT P6SM BKN090
     FM280100 28006KT P6SM SCT090
     FM280400 VRB03KT P6SM FEW090=

USA.gov is the U.S. government's official web portal to all federal, state and local government web resources and services.